createdAt,value
2022-09-24T00:00:52.399Z,9.49
2022-09-24T00:03:59.052Z,9.47
2022-09-24T00:07:01.088Z,9.48
2022-09-24T00:10:03.221Z,9.50
2022-09-24T00:13:08.727Z,9.61
2022-09-24T00:16:12.634Z,9.53
2022-09-24T00:19:14.838Z,9.41
2022-09-24T00:22:16.906Z,9.43
2022-09-24T00:25:37.222Z,9.53
2022-09-24T00:28:39.254Z,9.60
2022-09-24T00:31:41.517Z,9.64
2022-09-24T00:34:43.631Z,9.74
2022-09-24T00:37:45.694Z,9.97
2022-09-24T00:40:47.824Z,9.87
2022-09-24T00:43:50.262Z,9.95
2022-09-24T00:46:52.345Z,9.89
2022-09-24T00:50:19.499Z,9.78
2022-09-24T00:53:23.160Z,9.87
2022-09-24T00:56:25.402Z,9.80
2022-09-24T00:59:27.455Z,9.60
2022-09-24T01:02:31.045Z,9.75
2022-09-24T01:05:33.145Z,9.80
2022-09-24T01:08:35.203Z,9.74
2022-09-24T01:12:01.285Z,9.58
2022-09-24T01:15:28.898Z,9.42
2022-09-24T01:18:39.951Z,9.54
2022-09-24T01:21:49.218Z,9.53
2022-09-24T01:25:02.853Z,9.52
2022-09-24T01:28:34.931Z,9.56
2022-09-24T01:31:47.062Z,9.44
2022-09-24T01:35:02.250Z,9.41
2022-09-24T01:38:14.283Z,9.31
2022-09-24T01:41:16.439Z,9.31
2022-09-24T01:44:18.778Z,9.29
2022-09-24T01:47:33.517Z,9.38
2022-09-24T01:51:02.492Z,9.40
2022-09-24T01:54:07.947Z,9.30
2022-09-24T01:57:15.574Z,9.38
2022-09-24T02:00:19.192Z,9.16
2022-09-24T02:03:26.841Z,9.10
2022-09-24T02:06:36.214Z,8.80
2022-09-24T02:09:41.078Z,8.58
2022-09-24T02:12:44.504Z,8.62
2022-09-24T02:15:49.596Z,8.81
2022-09-24T02:18:54.217Z,8.60
2022-09-24T02:21:56.299Z,8.45
2022-09-24T02:24:59.908Z,8.48
2022-09-24T02:28:03.299Z,8.51
2022-09-24T02:31:18.820Z,8.73
2022-09-24T02:34:27.979Z,8.93
2022-09-24T02:37:34.132Z,8.94
2022-09-24T02:40:36.407Z,9.02
2022-09-24T02:43:38.635Z,9.00
2022-09-24T02:46:41.761Z,9.13
2022-09-24T02:49:43.986Z,8.89
2022-09-24T02:52:46.041Z,8.99
2022-09-24T02:55:48.894Z,9.14
2022-09-24T02:58:50.980Z,9.28
2022-09-24T03:01:53.294Z,9.14
2022-09-24T03:04:55.743Z,9.40
2022-09-24T03:07:59.199Z,9.41
2022-09-24T03:11:01.326Z,9.38
2022-09-24T03:14:03.440Z,9.33
2022-09-24T03:17:05.515Z,9.20
2022-09-24T03:20:08.196Z,9.16
2022-09-24T03:23:10.245Z,9.31
2022-09-24T03:26:12.589Z,9.23
2022-09-24T03:29:14.698Z,9.06
2022-09-24T03:32:16.772Z,9.17
2022-09-24T03:35:19.728Z,9.15
2022-09-24T03:38:21.783Z,9.29
2022-09-24T03:41:27.693Z,9.27
2022-09-24T03:44:29.864Z,9.18
2022-09-24T03:47:32.388Z,9.28
2022-09-24T03:50:38.040Z,9.24
2022-09-24T03:53:40.267Z,9.28
2022-09-24T03:56:43.171Z,9.32
2022-09-24T03:59:45.655Z,9.33
2022-09-24T04:02:47.809Z,9.30
2022-09-24T04:05:51.419Z,9.31
2022-09-24T04:08:53.661Z,9.22
2022-09-24T04:11:56.259Z,9.41
2022-09-24T04:14:58.380Z,9.32
2022-09-24T04:18:00.730Z,9.36
2022-09-24T04:21:02.912Z,9.52
2022-09-24T04:24:05.510Z,9.40
2022-09-24T04:27:07.680Z,9.44
2022-09-24T04:30:14.011Z,9.39
2022-09-24T04:33:16.552Z,9.32
2022-09-24T04:36:18.646Z,9.40
2022-09-24T04:39:26.566Z,9.26
2022-09-24T04:42:28.708Z,9.33
2022-09-24T04:45:31.307Z,9.49
2022-09-24T04:48:34.607Z,9.36
2022-09-24T04:51:36.806Z,9.32
2022-09-24T04:54:38.859Z,9.35
2022-09-24T04:57:41.355Z,9.51
2022-09-24T05:00:43.559Z,9.40
2022-09-24T05:03:45.739Z,9.32
2022-09-24T05:06:48.453Z,9.36
2022-09-24T05:09:50.592Z,9.50
2022-09-24T05:12:53.014Z,9.44
2022-09-24T05:15:55.124Z,9.60
2022-09-24T05:18:58.183Z,9.42
2022-09-24T05:22:00.346Z,9.48
2022-09-24T05:25:02.416Z,9.49
2022-09-24T05:28:04.543Z,9.59
2022-09-24T05:31:06.645Z,9.61
2022-09-24T05:34:08.911Z,9.61
2022-09-24T05:37:11.383Z,9.47
2022-09-24T05:40:32.159Z,9.57
2022-09-24T05:43:34.356Z,9.23
2022-09-24T05:46:36.646Z,9.24
2022-09-24T05:49:39.356Z,9.46
2022-09-24T05:52:41.699Z,9.42
2022-09-24T05:55:44.087Z,9.13
2022-09-24T05:58:50.211Z,9.24
2022-09-24T06:01:52.517Z,9.24
2022-09-24T06:04:54.679Z,9.31
2022-09-24T06:07:56.739Z,9.25
2022-09-24T06:11:05.300Z,9.03
2022-09-24T06:14:08.618Z,8.96
2022-09-24T06:17:11.033Z,8.99
2022-09-24T06:20:13.912Z,9.06
2022-09-24T06:23:15.992Z,9.16
2022-09-24T06:26:18.937Z,8.94
2022-09-24T06:29:20.981Z,8.88
2022-09-24T06:32:24.687Z,8.91
2022-09-24T06:35:26.742Z,8.89
2022-09-24T06:38:29.182Z,8.97
2022-09-24T06:41:31.227Z,8.89
2022-09-24T06:44:34.593Z,9.01
2022-09-24T06:47:36.668Z,8.96
2022-09-24T06:50:41.989Z,8.96
2022-09-24T06:53:44.108Z,8.92
2022-09-24T06:56:46.722Z,9.22
2022-09-24T06:59:48.809Z,9.40
2022-09-24T07:02:52.242Z,9.38
2022-09-24T07:05:54.733Z,9.52
2022-09-24T07:08:57.689Z,9.61
2022-09-24T07:12:03.091Z,9.78
2022-09-24T07:15:05.928Z,9.64
2022-09-24T07:18:08.580Z,9.74
2022-09-24T07:21:10.688Z,9.76
2022-09-24T07:24:12.832Z,9.82
2022-09-24T07:27:15.046Z,9.81
2022-09-24T07:30:17.327Z,10.12
2022-09-24T07:33:19.457Z,10.11
2022-09-24T07:36:21.903Z,10.14
2022-09-24T07:39:24.823Z,10.29
2022-09-24T07:42:27.971Z,10.66
2022-09-24T07:45:31.518Z,10.19
2022-09-24T07:48:33.594Z,10.28
2022-09-24T07:51:36.402Z,10.65
2022-09-24T07:54:38.658Z,10.69
2022-09-24T07:57:40.705Z,10.54
2022-09-24T08:00:42.934Z,10.85
2022-09-24T08:03:47.969Z,10.86
2022-09-24T08:06:50.075Z,10.92
2022-09-24T08:09:52.125Z,11.16
2022-09-24T08:12:54.355Z,11.10
2022-09-24T08:15:59.560Z,11.20
2022-09-24T08:19:01.687Z,11.11
2022-09-24T08:22:05.397Z,11.44
2022-09-24T08:25:07.974Z,11.46
2022-09-24T08:28:13.206Z,11.49
2022-09-24T08:31:16.302Z,11.93
2022-09-24T08:34:18.448Z,12.39
2022-09-24T08:37:20.517Z,12.72
2022-09-24T08:40:26.477Z,12.43
2022-09-24T08:44:08.539Z,12.41
2022-09-24T08:47:48.340Z,12.63
2022-09-24T08:51:00.798Z,12.41
2022-09-24T08:54:10.686Z,12.27
2022-09-24T08:57:14.709Z,12.55
2022-09-24T09:00:16.889Z,12.64
2022-09-24T09:03:37.220Z,12.93
2022-09-24T09:06:57.377Z,12.76
2022-09-24T09:10:08.181Z,12.48
2022-09-24T09:13:24.160Z,12.54
2022-09-24T09:16:34.039Z,13.16
2022-09-24T09:19:36.122Z,12.49
2022-09-24T09:22:50.208Z,12.91
2022-09-24T09:25:56.976Z,12.69
2022-09-24T09:29:01.054Z,13.54
2022-09-24T09:32:25.176Z,12.73
2022-09-24T09:35:58.453Z,13.27
2022-09-24T09:39:18.441Z,13.29
2022-09-24T09:42:36.029Z,13.70
2022-09-24T09:46:15.418Z,13.70
2022-09-24T09:49:17.557Z,13.81
2022-09-24T09:52:25.895Z,13.85
2022-09-24T09:55:36.141Z,13.20
2022-09-24T09:58:42.558Z,13.64
2022-09-24T10:01:46.911Z,13.84
2022-09-24T10:04:53.204Z,14.04
2022-09-24T10:07:58.644Z,14.01
2022-09-24T10:11:01.765Z,14.18
2022-09-24T10:14:05.099Z,14.65
2022-09-24T10:17:12.165Z,14.42
2022-09-24T10:20:29.404Z,14.13
2022-09-24T10:23:48.590Z,15.23
2022-09-24T10:26:50.717Z,15.45
2022-09-24T10:30:15.646Z,14.65
2022-09-24T10:33:18.705Z,15.00
2022-09-24T10:36:28.731Z,15.69
2022-09-24T10:39:31.046Z,15.00
2022-09-24T10:42:33.101Z,14.81
2022-09-24T10:46:13.112Z,15.19
2022-09-24T10:50:02.909Z,14.20
2022-09-24T10:53:08.967Z,14.64
2022-09-24T10:56:42.303Z,14.36
2022-09-24T11:00:14.379Z,14.22
2022-09-24T11:03:19.238Z,14.72
2022-09-24T11:06:49.266Z,14.83
2022-09-24T11:10:03.907Z,14.72
2022-09-24T11:13:36.040Z,15.17
2022-09-24T11:16:44.012Z,14.86
2022-09-24T11:20:29.834Z,14.97
2022-09-24T11:24:09.611Z,14.37
2022-09-24T11:27:36.272Z,14.22
2022-09-24T11:30:59.101Z,13.86
2022-09-24T11:34:16.926Z,14.17
2022-09-24T11:37:56.042Z,14.05
2022-09-24T11:41:25.818Z,13.83
2022-09-24T11:45:02.001Z,14.28
2022-09-24T11:48:31.624Z,14.28
2022-09-24T11:52:00.568Z,14.40
2022-09-24T11:55:31.787Z,14.33
2022-09-24T11:58:59.012Z,14.82
2022-09-24T12:02:17.991Z,15.07
2022-09-24T12:05:30.721Z,14.84
2022-09-24T12:08:44.604Z,15.13
2022-09-24T12:11:50.380Z,15.29
2022-09-24T12:15:02.794Z,15.49
2022-09-24T12:18:12.727Z,15.91
2022-09-24T12:21:22.855Z,15.62
2022-09-24T12:24:37.903Z,15.89
2022-09-24T12:27:40.342Z,15.67
2022-09-24T12:31:12.469Z,16.70
2022-09-24T12:34:31.882Z,16.37
2022-09-24T12:37:38.695Z,17.28
2022-09-24T12:41:11.681Z,16.16
2022-09-24T12:44:26.701Z,16.15
2022-09-24T12:47:33.715Z,15.26
2022-09-24T12:50:35.819Z,15.06
2022-09-24T12:53:41.510Z,16.01
2022-09-24T12:56:43.684Z,16.85
2022-09-24T12:59:48.683Z,16.85
2022-09-24T13:02:51.558Z,17.26
2022-09-24T13:05:53.863Z,17.04
2022-09-24T13:08:55.949Z,17.64
2022-09-24T13:12:22.703Z,16.93
2022-09-24T13:15:35.896Z,16.97
2022-09-24T13:18:38.044Z,16.52
2022-09-24T13:21:40.185Z,16.32
2022-09-24T13:24:51.336Z,16.94
2022-09-24T13:28:02.272Z,18.46
2022-09-24T13:31:23.925Z,19.62
2022-09-24T13:34:30.003Z,19.52
2022-09-24T13:37:40.323Z,18.93
2022-09-24T13:40:48.614Z,17.82
2022-09-24T13:44:23.745Z,20.01
2022-09-24T13:47:49.908Z,22.62
2022-09-24T13:50:52.512Z,21.19
2022-09-24T13:54:23.542Z,18.74
2022-09-24T13:57:29.676Z,17.41
2022-09-24T14:00:32.396Z,16.87
2022-09-24T14:03:35.732Z,16.60
2022-09-24T14:06:43.456Z,16.19
2022-09-24T14:09:47.722Z,16.28
2022-09-24T14:13:24.364Z,15.90
2022-09-24T14:16:26.648Z,16.62
2022-09-24T14:19:28.934Z,16.60
2022-09-24T14:22:36.029Z,17.44
2022-09-24T14:25:38.078Z,22.98
2022-09-24T14:28:40.164Z,18.24
2022-09-24T14:31:50.673Z,18.62
2022-09-24T14:34:55.218Z,17.72
2022-09-24T14:38:17.693Z,18.16
2022-09-24T14:41:23.355Z,16.18
2022-09-24T14:44:29.000Z,19.90
2022-09-24T14:47:33.925Z,18.13
2022-09-24T14:50:40.591Z,18.02
2022-09-24T14:53:42.707Z,17.87
2022-09-24T14:56:45.285Z,20.32
2022-09-24T14:59:47.548Z,24.53
2022-09-24T15:03:13.307Z,19.09
2022-09-24T15:06:20.952Z,18.36
2022-09-24T15:09:30.523Z,17.61
2022-09-24T15:12:35.504Z,22.96
2022-09-24T15:15:37.626Z,26.25
2022-09-24T15:18:39.716Z,19.75
2022-09-24T15:21:41.947Z,18.40
2022-09-24T15:24:44.037Z,17.71
2022-09-24T15:27:46.225Z,18.26
2022-09-24T15:30:48.563Z,21.72
2022-09-24T15:33:50.848Z,17.77
2022-09-24T15:36:59.366Z,17.26
2022-09-24T15:40:16.767Z,17.16
2022-09-24T15:43:24.106Z,16.35
2022-09-24T15:46:26.495Z,16.51
2022-09-24T15:49:28.603Z,15.72
2022-09-24T15:52:31.955Z,14.43
2022-09-24T15:55:36.282Z,14.35
2022-09-24T15:58:38.774Z,14.13
2022-09-24T16:01:41.898Z,16.90
2022-09-24T16:04:44.287Z,18.56
2022-09-24T16:07:46.573Z,16.06
2022-09-24T16:10:48.844Z,15.57
2022-09-24T16:13:51.196Z,16.64
2022-09-24T16:16:53.256Z,17.73
2022-09-24T16:19:55.307Z,18.65
2022-09-24T16:22:57.367Z,19.73
2022-09-24T16:26:00.640Z,17.32
2022-09-24T16:29:03.450Z,16.57
2022-09-24T16:32:05.569Z,16.66
2022-09-24T16:35:11.023Z,15.37
2022-09-24T16:38:13.775Z,14.57
2022-09-24T16:41:17.023Z,16.02
2022-09-24T16:44:19.370Z,15.67
2022-09-24T16:47:21.624Z,18.61
2022-09-24T16:50:26.961Z,19.97
2022-09-24T16:53:29.104Z,18.20
2022-09-24T16:56:31.219Z,18.59
2022-09-24T16:59:33.606Z,16.45
2022-09-24T17:02:36.146Z,15.20
2022-09-24T17:05:40.669Z,15.29
2022-09-24T17:09:01.648Z,15.14
2022-09-24T17:12:03.858Z,14.20
2022-09-24T17:15:07.889Z,13.47
2022-09-24T17:18:10.004Z,13.44
2022-09-24T17:21:12.628Z,13.23
2022-09-24T17:24:19.220Z,13.31
2022-09-24T17:27:23.898Z,12.85
2022-09-24T17:30:26.859Z,12.98
2022-09-24T17:33:42.876Z,12.72
2022-09-24T17:36:45.840Z,12.28
2022-09-24T17:39:48.040Z,12.06
2022-09-24T17:42:50.095Z,12.05
2022-09-24T17:46:03.385Z,11.96
2022-09-24T17:49:05.969Z,11.75
2022-09-24T17:52:08.302Z,11.48
2022-09-24T17:55:10.519Z,11.60
2022-09-24T17:58:12.583Z,11.39
2022-09-24T18:01:21.173Z,11.56
2022-09-24T18:04:25.701Z,11.48
2022-09-24T18:07:27.814Z,11.15
2022-09-24T18:10:29.860Z,11.23
2022-09-24T18:13:35.320Z,11.08
2022-09-24T18:16:37.444Z,11.04
2022-09-24T18:19:39.527Z,11.10
2022-09-24T18:22:41.570Z,10.94
2022-09-24T18:25:43.633Z,10.74
2022-09-24T18:28:54.005Z,10.63
2022-09-24T18:31:56.067Z,10.63
2022-09-24T18:34:58.825Z,10.35
2022-09-24T18:38:01.115Z,10.59
2022-09-24T18:41:20.857Z,10.73
2022-09-24T18:44:22.982Z,10.81
2022-09-24T18:47:25.070Z,10.55
2022-09-24T18:50:29.021Z,10.74
2022-09-24T18:53:31.516Z,10.70
2022-09-24T18:56:33.850Z,10.46
2022-09-24T18:59:44.348Z,10.22
2022-09-24T19:02:46.506Z,10.43
2022-09-24T19:05:51.474Z,10.30
2022-09-24T19:08:53.546Z,10.41
2022-09-24T19:11:56.028Z,10.34
2022-09-24T19:14:58.727Z,10.36
2022-09-24T19:18:00.755Z,10.39
2022-09-24T19:21:06.483Z,10.46
2022-09-24T19:24:09.916Z,10.16
2022-09-24T19:27:12.030Z,10.28
2022-09-24T19:30:14.141Z,10.44
2022-09-24T19:33:16.995Z,9.73
2022-09-24T19:36:19.713Z,9.61
2022-09-24T19:39:21.826Z,9.42
2022-09-24T19:42:26.682Z,9.83
2022-09-24T19:45:29.920Z,9.84
2022-09-24T19:48:32.604Z,9.80
2022-09-24T19:51:35.010Z,9.73
2022-09-24T19:54:37.549Z,9.61
2022-09-24T19:57:40.183Z,9.72
2022-09-24T20:00:43.109Z,9.73
2022-09-24T20:03:45.211Z,9.61
2022-09-24T20:06:47.875Z,9.55
2022-09-24T20:09:49.924Z,9.59
2022-09-24T20:12:52.378Z,9.71
2022-09-24T20:15:58.830Z,9.73
2022-09-24T20:19:01.717Z,9.81
2022-09-24T20:22:03.948Z,9.66
2022-09-24T20:25:06.779Z,9.62
2022-09-24T20:28:14.090Z,9.50
2022-09-24T20:31:18.161Z,9.73
2022-09-24T20:34:33.591Z,9.77
2022-09-24T20:37:36.012Z,9.83
2022-09-24T20:40:39.825Z,9.52
2022-09-24T20:43:42.031Z,9.39
2022-09-24T20:46:44.153Z,9.32
2022-09-24T20:49:46.235Z,9.39
2022-09-24T20:52:48.327Z,9.44
2022-09-24T20:55:53.597Z,9.44
2022-09-24T20:58:55.712Z,9.74
2022-09-24T21:01:57.895Z,9.77
2022-09-24T21:05:00.022Z,9.74
2022-09-24T21:08:08.583Z,9.71
2022-09-24T21:11:13.675Z,9.68
2022-09-24T21:14:15.739Z,10.01
2022-09-24T21:17:18.595Z,10.28
2022-09-24T21:20:20.644Z,10.30
2022-09-24T21:23:24.984Z,10.12
2022-09-24T21:26:30.750Z,9.92
2022-09-24T21:29:32.815Z,9.64
2022-09-24T21:32:35.758Z,9.22
2022-09-24T21:35:37.827Z,9.11
2022-09-24T21:38:39.906Z,9.54
2022-09-24T21:41:42.176Z,9.75
2022-09-24T21:44:44.280Z,9.93
2022-09-24T21:47:46.348Z,9.90
2022-09-24T21:50:48.500Z,9.93
2022-09-24T21:53:52.534Z,10.02
2022-09-24T21:56:54.603Z,10.32
2022-09-24T21:59:59.455Z,10.37
2022-09-24T22:03:01.541Z,10.42
2022-09-24T22:06:04.055Z,10.17
2022-09-24T22:09:06.870Z,10.11
2022-09-24T22:12:09.700Z,10.11
2022-09-24T22:15:11.902Z,10.10
2022-09-24T22:18:14.086Z,10.08
2022-09-24T22:21:16.186Z,10.23
2022-09-24T22:24:18.228Z,10.29
2022-09-24T22:27:20.274Z,10.05
2022-09-24T22:30:22.320Z,9.93
2022-09-24T22:33:43.229Z,9.90
2022-09-24T22:36:45.405Z,9.99
2022-09-24T22:39:47.444Z,9.98
2022-09-24T22:42:49.541Z,10.17
2022-09-24T22:46:00.507Z,10.18
2022-09-24T22:49:03.435Z,10.41
2022-09-24T22:52:05.707Z,10.61
2022-09-24T22:55:08.488Z,10.25
2022-09-24T22:58:10.612Z,10.14
2022-09-24T23:01:21.639Z,10.53
2022-09-24T23:04:24.160Z,10.44
2022-09-24T23:07:26.288Z,10.57
2022-09-24T23:10:30.005Z,10.91
2022-09-24T23:13:32.840Z,10.96
2022-09-24T23:16:36.218Z,10.95
2022-09-24T23:19:51.312Z,10.82
2022-09-24T23:22:53.348Z,10.86
2022-09-24T23:26:05.428Z,10.54
2022-09-24T23:29:08.627Z,10.47
2022-09-24T23:32:11.517Z,10.45
2022-09-24T23:35:13.615Z,10.75
2022-09-24T23:38:15.677Z,10.73
2022-09-24T23:41:17.713Z,10.37
2022-09-24T23:44:19.886Z,10.35
2022-09-24T23:47:22.571Z,10.38
2022-09-24T23:50:24.775Z,10.46
2022-09-24T23:53:27.017Z,10.50
2022-09-24T23:56:29.117Z,10.70
2022-09-24T23:59:31.303Z,10.79
